createdAt,value
2022-12-08T00:01:42.655Z,0.26
2022-12-08T00:04:11.532Z,0.24
2022-12-08T00:06:59.286Z,0.20
2022-12-08T00:09:36.366Z,0.17
2022-12-08T00:12:08.468Z,0.17
2022-12-08T00:14:40.274Z,0.15
2022-12-08T00:17:10.462Z,0.17
2022-12-08T00:19:40.106Z,0.14
2022-12-08T00:22:09.363Z,0.15
2022-12-08T00:24:39.992Z,0.08
2022-12-08T00:27:09.220Z,0.06
2022-12-08T00:29:39.005Z,0.09
2022-12-08T00:32:07.721Z,0.04
2022-12-08T00:34:35.881Z,0.01
2022-12-08T00:37:04.024Z,-0.04
2022-12-08T00:39:34.137Z,-0.04
2022-12-08T00:42:14.194Z,-0.04
2022-12-08T00:44:45.130Z,-0.05
2022-12-08T00:47:14.716Z,-0.06
2022-12-08T00:49:43.105Z,-0.10
2022-12-08T00:52:12.661Z,-0.12
2022-12-08T00:54:40.662Z,-0.09
2022-12-08T00:57:08.637Z,-0.13
2022-12-08T00:59:36.706Z,-0.18
2022-12-08T01:02:06.099Z,-0.20
2022-12-08T01:04:34.167Z,-0.21
2022-12-08T01:07:02.259Z,-0.21
2022-12-08T01:09:30.338Z,-0.21
2022-12-08T01:11:58.358Z,-0.25
2022-12-08T01:14:26.482Z,-0.25
2022-12-08T01:16:54.583Z,-0.27
2022-12-08T01:19:24.338Z,-0.28
2022-12-08T01:21:52.519Z,-0.30
2022-12-08T01:24:22.327Z,-0.31
2022-12-08T01:26:51.703Z,-0.32
2022-12-08T01:29:19.819Z,-0.31
2022-12-08T01:31:47.885Z,-0.34
2022-12-08T01:34:16.158Z,-0.36
2022-12-08T01:36:45.820Z,-0.34
2022-12-08T01:39:16.751Z,-0.35
2022-12-08T01:41:45.963Z,-0.37
2022-12-08T01:44:51.576Z,-0.41
2022-12-08T01:47:19.829Z,-0.42
2022-12-08T01:49:48.575Z,-0.46
2022-12-08T01:52:25.087Z,-0.49
2022-12-08T01:54:57.092Z,-0.54
2022-12-08T01:57:29.210Z,-0.51
2022-12-08T02:00:02.878Z,-0.53
2022-12-08T02:02:46.957Z,-0.54
2022-12-08T02:05:16.162Z,-0.56
2022-12-08T02:07:47.718Z,-0.59
2022-12-08T02:10:19.708Z,-0.61
2022-12-08T02:12:49.257Z,-0.58
2022-12-08T02:15:17.766Z,-0.63
2022-12-08T02:18:57.695Z,-0.64
2022-12-08T02:22:03.770Z,-0.67
2022-12-08T02:24:39.057Z,-0.70
2022-12-08T02:27:29.198Z,-0.70
2022-12-08T02:30:26.151Z,-0.68
2022-12-08T02:33:22.532Z,-0.74
2022-12-08T02:36:00.960Z,-0.75
2022-12-08T02:38:38.309Z,-0.74
2022-12-08T02:41:20.717Z,-0.77
2022-12-08T02:43:54.318Z,-0.78
2022-12-08T02:46:28.223Z,-0.75
2022-12-08T02:48:57.750Z,-0.81
2022-12-08T02:51:27.333Z,-0.81
2022-12-08T02:53:56.375Z,-0.79
2022-12-08T02:56:40.190Z,-0.82
2022-12-08T02:59:39.387Z,-0.84
2022-12-08T03:02:23.073Z,-0.83
2022-12-08T03:05:01.266Z,-0.84
2022-12-08T03:07:34.451Z,-0.86
2022-12-08T03:10:08.424Z,-0.85
2022-12-08T03:12:43.267Z,-0.90
2022-12-08T03:15:36.978Z,-0.93
2022-12-08T03:18:06.775Z,-0.95
2022-12-08T03:20:36.261Z,-0.93
2022-12-08T03:23:09.556Z,-0.95
2022-12-08T03:25:42.250Z,-1.00
2022-12-08T03:28:10.800Z,-0.96
2022-12-08T03:30:42.524Z,-1.03
2022-12-08T03:33:16.663Z,-0.98
2022-12-08T03:35:46.299Z,-0.98
2022-12-08T03:38:17.511Z,-1.06
2022-12-08T03:44:23.435Z,-1.06
2022-12-08T03:46:51.562Z,-1.08
2022-12-08T03:49:19.641Z,-1.07
2022-12-08T03:51:47.701Z,-1.12
2022-12-08T03:54:17.119Z,-1.12
2022-12-08T03:56:46.277Z,-1.12
2022-12-08T03:59:14.513Z,-1.12
2022-12-08T04:01:42.607Z,-1.14
2022-12-08T04:04:10.836Z,-1.17
2022-12-08T04:06:38.842Z,-1.20
2022-12-08T04:09:06.878Z,-1.20
2022-12-08T04:11:36.448Z,-1.21
2022-12-08T04:14:04.555Z,-1.19
2022-12-08T04:16:32.702Z,-1.22
2022-12-08T04:19:00.925Z,-1.19
2022-12-08T04:21:28.971Z,-1.20
2022-12-08T04:24:01.048Z,-1.24
2022-12-08T04:26:29.875Z,-1.28
2022-12-08T04:28:59.275Z,-1.25
2022-12-08T04:31:27.472Z,-1.24
2022-12-08T04:33:55.504Z,-1.28
2022-12-08T04:36:23.622Z,-1.28
2022-12-08T04:38:51.649Z,-1.29
2022-12-08T04:41:19.675Z,-1.30
2022-12-08T04:43:47.735Z,-1.34
2022-12-08T04:46:17.303Z,-1.31
2022-12-08T04:48:45.363Z,-1.34
2022-12-08T04:51:16.542Z,-1.31
2022-12-08T04:53:46.727Z,-1.33
2022-12-08T04:56:15.905Z,-1.33
2022-12-08T04:58:44.058Z,-1.34
2022-12-08T05:01:12.823Z,-1.35
2022-12-08T05:03:42.362Z,-1.32
2022-12-08T05:06:12.063Z,-1.37
2022-12-08T05:08:40.167Z,-1.37
2022-12-08T05:11:11.015Z,-1.40
2022-12-08T05:13:39.209Z,-1.42
2022-12-08T05:16:09.122Z,-1.43
2022-12-08T05:18:37.565Z,-1.44
2022-12-08T05:21:08.054Z,-1.44
2022-12-08T05:23:36.307Z,-1.43
2022-12-08T05:26:04.561Z,-1.44
2022-12-08T05:28:41.421Z,-1.43
2022-12-08T05:31:10.432Z,-1.46
2022-12-08T05:33:38.456Z,-1.44
2022-12-08T05:36:08.798Z,-1.46
2022-12-08T05:38:37.046Z,-1.49
2022-12-08T05:41:05.233Z,-1.48
2022-12-08T05:43:33.352Z,-1.50
2022-12-08T05:46:01.453Z,-1.51
2022-12-08T05:48:30.000Z,-1.48
2022-12-08T05:50:58.101Z,-1.47
2022-12-08T05:53:27.482Z,-1.43
2022-12-08T05:55:55.615Z,-1.46
2022-12-08T05:58:24.638Z,-1.46
2022-12-08T06:00:52.663Z,-1.47
2022-12-08T06:03:20.882Z,-1.45
2022-12-08T06:05:49.226Z,-1.44
2022-12-08T06:08:17.543Z,-1.47
2022-12-08T06:10:47.363Z,-1.45
2022-12-08T06:13:16.177Z,-1.46
2022-12-08T06:15:44.262Z,-1.46
2022-12-08T06:18:12.796Z,-1.44
2022-12-08T06:20:40.825Z,-1.47
2022-12-08T06:23:09.093Z,-1.50
2022-12-08T06:25:37.122Z,-1.51
2022-12-08T06:28:08.529Z,-1.51
2022-12-08T06:30:36.658Z,-1.53
2022-12-08T06:33:04.743Z,-1.51
2022-12-08T06:35:32.950Z,-1.54
2022-12-08T06:38:00.927Z,-1.52
2022-12-08T06:40:29.038Z,-1.54
2022-12-08T06:42:57.099Z,-1.56
2022-12-08T06:45:26.479Z,-1.57
2022-12-08T06:47:54.578Z,-1.56
2022-12-08T06:50:22.729Z,-1.54
2022-12-08T06:53:02.683Z,-1.57
2022-12-08T06:58:21.649Z,-1.61
2022-12-08T07:00:51.220Z,-1.61
2022-12-08T07:03:19.380Z,-1.62
2022-12-08T07:05:47.763Z,-1.59
2022-12-08T07:08:16.049Z,-1.61
2022-12-08T07:10:44.188Z,-1.57
2022-12-08T07:13:12.283Z,-1.58
2022-12-08T07:15:40.665Z,-1.60
2022-12-08T07:18:10.032Z,-1.64
2022-12-08T07:20:38.683Z,-1.66
2022-12-08T07:23:06.726Z,-1.66
2022-12-08T07:25:35.062Z,-1.68
2022-12-08T07:28:08.310Z,-1.68
2022-12-08T07:30:36.442Z,-1.69
2022-12-08T07:33:31.227Z,-1.72
2022-12-08T07:36:04.364Z,-1.70
2022-12-08T07:38:32.624Z,-1.74
2022-12-08T07:41:00.668Z,-1.75
2022-12-08T07:43:29.017Z,-1.74
2022-12-08T07:45:57.088Z,-1.75
2022-12-08T07:48:25.158Z,-1.79
2022-12-08T07:51:43.259Z,-1.80
2022-12-08T07:54:38.877Z,-1.79
2022-12-08T07:57:09.112Z,-1.81
2022-12-08T07:59:37.452Z,-1.80
2022-12-08T08:02:23.462Z,-1.80
2022-12-08T08:04:54.475Z,-1.77
2022-12-08T08:07:22.649Z,-1.80
2022-12-08T08:09:52.085Z,-1.80
2022-12-08T08:12:31.172Z,-1.80
2022-12-08T08:15:00.309Z,-1.77
2022-12-08T08:17:28.639Z,-1.74
2022-12-08T08:19:57.345Z,-1.75
2022-12-08T08:22:26.337Z,-1.76
2022-12-08T08:24:56.109Z,-1.74
2022-12-08T08:27:28.013Z,-1.70
2022-12-08T08:29:56.139Z,-1.71
2022-12-08T08:32:24.116Z,-1.67
2022-12-08T08:34:52.273Z,-1.67
2022-12-08T08:37:23.160Z,-1.66
2022-12-08T08:39:54.058Z,-1.67
2022-12-08T08:42:24.039Z,-1.64
2022-12-08T08:44:54.075Z,-1.61
2022-12-08T08:47:22.047Z,-1.59
2022-12-08T08:49:50.274Z,-1.56
2022-12-08T08:52:18.453Z,-1.54
2022-12-08T08:54:46.441Z,-1.54
2022-12-08T08:57:14.432Z,-1.48
2022-12-08T08:59:43.893Z,-1.48
2022-12-08T09:02:17.427Z,-1.45
2022-12-08T09:04:46.406Z,-1.40
2022-12-08T09:07:16.046Z,-1.40
2022-12-08T09:09:44.471Z,-1.38
2022-12-08T09:12:13.622Z,-1.29
2022-12-08T09:14:43.098Z,-1.24
2022-12-08T09:17:13.199Z,-1.26
2022-12-08T09:19:41.428Z,-1.22
2022-12-08T09:22:11.025Z,-1.19
2022-12-08T09:24:39.116Z,-1.14
2022-12-08T09:27:07.169Z,-1.12
2022-12-08T09:29:36.382Z,-1.08
2022-12-08T09:32:06.664Z,-1.06
2022-12-08T09:34:36.179Z,-1.02
2022-12-08T09:37:04.520Z,-0.98
2022-12-08T09:39:32.584Z,-0.95
2022-12-08T09:42:03.694Z,-0.88
2022-12-08T09:44:45.435Z,-0.81
2022-12-08T09:47:22.384Z,-0.78
2022-12-08T09:49:58.018Z,-0.77
2022-12-08T09:52:31.312Z,-0.71
2022-12-08T09:55:02.392Z,-0.69
2022-12-08T09:57:32.118Z,-0.63
2022-12-08T10:00:06.076Z,-0.57
2022-12-08T10:02:36.529Z,-0.55
2022-12-08T10:05:04.775Z,-0.52
2022-12-08T10:07:40.184Z,-0.47
2022-12-08T10:10:23.770Z,-0.42
2022-12-08T10:12:56.278Z,-0.36
2022-12-08T10:15:38.148Z,-0.37
2022-12-08T10:18:15.191Z,-0.34
2022-12-08T10:20:45.638Z,-0.29
2022-12-08T10:23:23.910Z,-0.24
2022-12-08T10:25:57.127Z,-0.21
2022-12-08T10:28:25.270Z,-0.16
2022-12-08T10:30:53.323Z,-0.11
2022-12-08T10:33:23.864Z,-0.13
2022-12-08T10:35:54.253Z,-0.13
2022-12-08T10:38:24.715Z,-0.05
2022-12-08T10:40:55.692Z,-0.03
2022-12-08T10:43:25.872Z,0.00
2022-12-08T10:45:54.348Z,0.03
2022-12-08T10:48:27.368Z,0.10
2022-12-08T10:50:58.053Z,0.12
2022-12-08T10:53:27.918Z,0.14
2022-12-08T10:56:08.559Z,0.19
2022-12-08T10:58:40.749Z,0.26
2022-12-08T11:01:14.336Z,0.28
2022-12-08T11:03:48.872Z,0.35
2022-12-08T11:06:20.075Z,0.39
2022-12-08T11:08:51.576Z,0.39
2022-12-08T11:11:25.835Z,0.42
2022-12-08T11:13:55.774Z,0.50
2022-12-08T11:16:25.142Z,0.56
2022-12-08T11:18:59.369Z,0.61
2022-12-08T11:21:37.237Z,0.64
2022-12-08T11:24:22.636Z,0.66
2022-12-08T11:26:55.272Z,0.74
2022-12-08T11:29:23.481Z,0.76
2022-12-08T11:31:58.651Z,0.79
2022-12-08T11:34:35.415Z,0.82
2022-12-08T11:37:06.253Z,0.87
2022-12-08T11:39:37.523Z,0.92
2022-12-08T11:42:12.697Z,1.00
2022-12-08T11:44:48.811Z,1.04
2022-12-08T11:47:21.759Z,1.09
2022-12-08T11:49:56.844Z,1.13
2022-12-08T11:52:30.808Z,1.12
2022-12-08T11:55:23.633Z,1.17
2022-12-08T11:57:52.753Z,1.24
2022-12-08T12:00:21.301Z,1.30
2022-12-08T12:02:56.193Z,1.36
2022-12-08T12:06:08.823Z,1.40
2022-12-08T12:08:41.948Z,1.47
2022-12-08T12:11:41.070Z,1.49
2022-12-08T12:14:26.230Z,1.51
2022-12-08T12:17:03.302Z,1.57
2022-12-08T12:19:37.015Z,1.59
2022-12-08T12:22:15.381Z,1.68
2022-12-08T12:24:47.463Z,1.77
2022-12-08T12:27:28.138Z,1.83
2022-12-08T12:30:00.081Z,1.85
2022-12-08T12:32:42.587Z,1.93
2022-12-08T12:35:17.977Z,1.97
2022-12-08T12:37:50.017Z,2.04
2022-12-08T12:40:21.432Z,2.13
2022-12-08T12:43:25.573Z,2.28
2022-12-08T12:46:32.447Z,2.33
2022-12-08T12:49:34.152Z,2.40
2022-12-08T12:52:02.258Z,2.41
2022-12-08T12:54:32.191Z,2.41
2022-12-08T12:57:22.414Z,2.47
2022-12-08T13:00:09.464Z,2.54
2022-12-08T13:02:40.842Z,2.57
2022-12-08T13:05:12.005Z,2.59
2022-12-08T13:07:43.528Z,2.65
2022-12-08T13:10:20.072Z,2.66
2022-12-08T13:13:04.378Z,2.65
2022-12-08T13:15:36.909Z,2.70
2022-12-08T13:18:05.853Z,2.78
2022-12-08T13:20:42.485Z,2.80
2022-12-08T13:23:27.207Z,2.80
2022-12-08T13:26:17.135Z,2.86
2022-12-08T13:29:16.611Z,2.87
2022-12-08T13:31:50.969Z,2.89
2022-12-08T13:34:32.789Z,2.95
2022-12-08T13:37:03.364Z,2.87
2022-12-08T13:39:38.040Z,2.94
2022-12-08T13:42:20.249Z,2.92
2022-12-08T13:48:13.716Z,2.98
2022-12-08T13:51:15.941Z,2.94
2022-12-08T13:54:35.424Z,2.92
2022-12-08T13:59:28.195Z,3.01
2022-12-08T14:01:58.439Z,3.00
2022-12-08T14:04:54.400Z,2.97
2022-12-08T14:07:15.931Z,2.92
2022-12-08T14:09:44.501Z,2.93
2022-12-08T14:12:20.562Z,2.95
2022-12-08T14:15:07.526Z,2.95
2022-12-08T14:17:35.909Z,2.95
2022-12-08T14:20:07.543Z,2.91
2022-12-08T14:22:37.685Z,2.95
2022-12-08T14:25:07.769Z,2.90
2022-12-08T14:27:37.976Z,2.90
2022-12-08T14:30:16.600Z,2.87
2022-12-08T14:32:49.098Z,2.85
2022-12-08T14:35:23.467Z,2.81
2022-12-08T14:37:55.739Z,2.81
2022-12-08T14:40:26.350Z,2.88
2022-12-08T14:43:06.215Z,2.81
2022-12-08T14:45:35.911Z,2.79
2022-12-08T14:48:21.980Z,2.79
2022-12-08T14:51:05.132Z,2.76
2022-12-08T14:53:39.680Z,2.71
2022-12-08T14:56:18.703Z,2.72
2022-12-08T14:58:47.816Z,2.71
2022-12-08T15:01:22.493Z,2.66
2022-12-08T15:03:51.801Z,2.67
2022-12-08T15:06:23.230Z,2.65
2022-12-08T15:09:01.924Z,2.69
2022-12-08T15:11:35.959Z,2.62
2022-12-08T15:14:04.515Z,2.60
2022-12-08T15:16:41.707Z,2.60
2022-12-08T15:19:23.291Z,2.55
2022-12-08T15:21:52.174Z,2.51
2022-12-08T15:24:23.003Z,2.47
2022-12-08T15:26:52.432Z,2.42
2022-12-08T15:29:22.634Z,2.40
2022-12-08T15:31:54.903Z,2.36
2022-12-08T15:34:23.057Z,2.29
2022-12-08T15:36:53.100Z,2.27
2022-12-08T15:39:30.231Z,2.20
2022-12-08T15:41:58.353Z,2.17
2022-12-08T15:44:26.580Z,2.10
2022-12-08T15:46:56.627Z,2.07
2022-12-08T15:49:25.486Z,2.01
2022-12-08T15:52:01.954Z,1.97
2022-12-08T15:54:32.994Z,1.91
2022-12-08T16:04:09.025Z,1.75
2022-12-08T16:07:12.821Z,1.70
2022-12-08T16:09:13.295Z,1.68
2022-12-08T16:12:08.287Z,1.64
2022-12-08T16:17:27.139Z,1.53
2022-12-08T16:19:56.752Z,1.52
2022-12-08T16:22:52.819Z,1.49
2022-12-08T16:25:20.418Z,1.45
2022-12-08T16:28:29.570Z,1.40
2022-12-08T16:30:38.805Z,1.36
2022-12-08T16:33:07.447Z,1.33
2022-12-08T16:35:36.926Z,1.27
2022-12-08T16:38:05.277Z,1.26
2022-12-08T16:40:53.692Z,1.21
2022-12-08T16:43:20.964Z,1.17
2022-12-08T16:45:52.144Z,1.16
2022-12-08T16:48:20.699Z,1.16
2022-12-08T16:50:50.215Z,1.14
2022-12-08T16:53:18.324Z,1.14
2022-12-08T16:55:47.983Z,1.09
2022-12-08T16:58:18.362Z,1.10
2022-12-08T17:00:46.652Z,1.12
2022-12-08T17:03:16.751Z,1.12
2022-12-08T17:05:45.304Z,1.13
2022-12-08T17:08:14.873Z,1.11
2022-12-08T17:10:42.959Z,1.14
2022-12-08T17:13:13.007Z,1.15
2022-12-08T17:15:41.342Z,1.14
2022-12-08T17:18:09.299Z,1.16
2022-12-08T17:20:37.351Z,1.12
2022-12-08T17:23:05.388Z,1.07
2022-12-08T17:25:34.775Z,1.02
2022-12-08T17:28:02.792Z,0.96
2022-12-08T17:30:30.867Z,0.94
2022-12-08T17:33:00.835Z,0.91
2022-12-08T17:35:28.889Z,0.87
2022-12-08T17:37:56.994Z,0.87
2022-12-08T17:40:28.153Z,0.84
2022-12-08T17:42:57.836Z,0.80
2022-12-08T17:45:25.867Z,0.80
2022-12-08T17:47:53.924Z,0.78
2022-12-08T17:50:22.094Z,0.72
2022-12-08T17:52:51.510Z,0.68
2022-12-08T17:55:19.570Z,0.61
2022-12-08T17:57:47.598Z,0.58
2022-12-08T18:00:17.453Z,0.59
2022-12-08T18:02:45.952Z,0.54
2022-12-08T18:05:14.104Z,0.50
2022-12-08T18:07:42.499Z,0.47
2022-12-08T18:10:10.603Z,0.42
2022-12-08T18:12:39.639Z,0.38
2022-12-08T18:15:12.659Z,0.34
2022-12-08T18:17:42.027Z,0.29
2022-12-08T18:20:10.985Z,0.26
2022-12-08T18:22:39.064Z,0.22
2022-12-08T18:25:08.177Z,0.13
2022-12-08T18:27:41.442Z,0.10
2022-12-08T18:30:15.393Z,0.07
2022-12-08T18:32:45.036Z,0.00
2022-12-08T18:35:13.434Z,-0.04
2022-12-08T18:37:42.994Z,-0.16
2022-12-08T18:40:12.584Z,-0.17
2022-12-08T18:42:40.605Z,-0.22
2022-12-08T18:45:09.395Z,-0.29
2022-12-08T18:47:39.512Z,-0.32
2022-12-08T18:50:11.048Z,-0.33
2022-12-08T18:52:39.133Z,-0.41
2022-12-08T18:55:08.476Z,-0.43
2022-12-08T18:57:39.385Z,-0.48
2022-12-08T19:00:11.457Z,-0.50
2022-12-08T19:02:40.051Z,-0.54
2022-12-08T19:05:11.629Z,-0.57
2022-12-08T19:07:39.944Z,-0.59
2022-12-08T19:10:09.402Z,-0.61
2022-12-08T19:12:37.635Z,-0.68
2022-12-08T19:15:06.526Z,-0.65
2022-12-08T19:17:34.787Z,-0.71
2022-12-08T19:20:03.599Z,-0.73
2022-12-08T19:22:33.113Z,-0.77
2022-12-08T19:25:01.138Z,-0.81
2022-12-08T19:27:29.247Z,-0.85
2022-12-08T19:29:58.818Z,-0.87
2022-12-08T19:32:27.163Z,-0.89
2022-12-08T19:34:55.219Z,-0.88
2022-12-08T19:37:23.413Z,-0.94
2022-12-08T19:40:06.854Z,-0.96
2022-12-08T19:42:52.679Z,-0.97
2022-12-08T19:45:22.801Z,-1.00
2022-12-08T19:47:51.196Z,-1.00
2022-12-08T19:50:38.149Z,-0.96
2022-12-08T19:53:07.296Z,-1.02
2022-12-08T19:55:36.801Z,-1.06
2022-12-08T19:58:06.745Z,-1.09
2022-12-08T20:00:36.381Z,-1.08
2022-12-08T20:03:05.334Z,-1.09
2022-12-08T20:06:00.809Z,-1.04
2022-12-08T20:08:28.886Z,-1.03
2022-12-08T20:10:59.425Z,-0.95
2022-12-08T20:13:45.242Z,-0.87
2022-12-08T20:16:14.880Z,-0.85
2022-12-08T20:18:44.357Z,-0.85
2022-12-08T20:21:13.416Z,-0.81
2022-12-08T20:23:41.629Z,-0.78
2022-12-08T20:26:15.746Z,-0.75
2022-12-08T20:28:44.175Z,-0.75
2022-12-08T20:31:19.207Z,-0.68
2022-12-08T20:33:48.345Z,-0.70
2022-12-08T20:36:19.267Z,-0.69
2022-12-08T20:38:49.824Z,-0.69
2022-12-08T20:41:19.988Z,-0.69
2022-12-08T20:43:51.886Z,-0.70
2022-12-08T20:46:21.362Z,-0.71
2022-12-08T20:48:49.861Z,-0.72
2022-12-08T20:51:19.435Z,-0.73
2022-12-08T20:53:48.156Z,-0.74
2022-12-08T20:56:17.880Z,-0.78
2022-12-08T20:58:48.009Z,-0.80
2022-12-08T21:01:22.621Z,-0.82
2022-12-08T21:03:51.231Z,-0.85
2022-12-08T21:06:22.239Z,-0.92
2022-12-08T21:08:52.833Z,-0.94
2022-12-08T21:11:21.205Z,-0.97
2022-12-08T21:13:50.902Z,-0.99
2022-12-08T21:16:44.725Z,-1.05
2022-12-08T21:19:13.378Z,-1.05
2022-12-08T21:21:41.406Z,-1.08
2022-12-08T21:24:10.705Z,-1.14
2022-12-08T21:26:39.161Z,-1.17
2022-12-08T21:29:08.604Z,-1.20
2022-12-08T21:31:36.749Z,-1.22
2022-12-08T21:34:05.355Z,-1.24
2022-12-08T21:36:33.749Z,-1.21
2022-12-08T21:39:02.834Z,-1.29
2022-12-08T21:41:48.984Z,-1.24
2022-12-08T21:44:19.537Z,-1.23
2022-12-08T21:46:48.126Z,-1.25
2022-12-08T21:49:17.355Z,-1.20
2022-12-08T21:51:45.701Z,-1.25
2022-12-08T21:54:18.652Z,-1.27
2022-12-08T21:56:48.708Z,-1.35
2022-12-08T21:59:19.781Z,-1.36
2022-12-08T22:01:49.098Z,-1.32
2022-12-08T22:04:18.495Z,-1.31
2022-12-08T22:06:47.074Z,-1.35
2022-12-08T22:09:15.292Z,-1.36
2022-12-08T22:12:45.355Z,-1.41
2022-12-08T22:15:15.091Z,-1.40
2022-12-08T22:17:45.048Z,-1.47
2022-12-08T22:20:15.666Z,-1.47
2022-12-08T22:22:44.323Z,-1.53
2022-12-08T22:25:13.188Z,-1.51
2022-12-08T22:27:42.231Z,-1.51
2022-12-08T22:30:12.006Z,-1.56
2022-12-08T22:32:42.087Z,-1.58
2022-12-08T22:35:11.270Z,-1.63
2022-12-08T22:37:39.427Z,-1.61
2022-12-08T22:40:09.020Z,-1.65
2022-12-08T22:42:37.482Z,-1.68
2022-12-08T22:45:06.235Z,-1.68
2022-12-08T22:47:34.583Z,-1.69
2022-12-08T22:50:05.173Z,-1.71
2022-12-08T22:52:33.600Z,-1.74
2022-12-08T22:55:01.591Z,-1.77
2022-12-08T22:57:30.066Z,-1.81
2022-12-08T22:59:58.193Z,-1.84
2022-12-08T23:02:26.564Z,-1.84
2022-12-08T23:04:57.068Z,-1.87
2022-12-08T23:07:26.811Z,-1.90
2022-12-08T23:09:55.073Z,-1.90
2022-12-08T23:12:23.576Z,-1.94
2022-12-08T23:14:51.694Z,-1.94
2022-12-08T23:17:20.151Z,-1.89
2022-12-08T23:19:51.054Z,-1.89
2022-12-08T23:22:19.175Z,-1.90
2022-12-08T23:24:48.665Z,-1.95
2022-12-08T23:27:16.797Z,-2.00
2022-12-08T23:29:44.888Z,-2.01
2022-12-08T23:32:13.113Z,-2.02
2022-12-08T23:34:41.348Z,-2.05
2022-12-08T23:37:09.706Z,-2.05
2022-12-08T23:39:37.798Z,-2.07
2022-12-08T23:42:07.749Z,-2.10
2022-12-08T23:44:35.795Z,-2.13
2022-12-08T23:47:04.003Z,-2.12
2022-12-08T23:49:32.008Z,-2.15
2022-12-08T23:52:00.258Z,-2.16
2022-12-08T23:54:28.360Z,-2.16
2022-12-08T23:56:56.381Z,-2.19
2022-12-08T23:59:25.801Z,-2.18
